createdAt,value
2023-03-15T00:02:36.611Z,99234.00
2023-03-15T00:05:43.335Z,99224.50
2023-03-15T00:08:48.077Z,99225.81
2023-03-15T00:11:51.420Z,99218.84
2023-03-15T00:14:53.295Z,99208.50
2023-03-15T00:17:55.121Z,99204.03
2023-03-15T00:20:59.205Z,99209.22
2023-03-15T00:24:01.377Z,99203.91
2023-03-15T00:27:03.680Z,99200.06
2023-03-15T00:30:06.763Z,99195.69
2023-03-15T00:33:09.129Z,99195.19
2023-03-15T00:36:12.240Z,99197.00
2023-03-15T00:39:15.398Z,99194.09
2023-03-15T00:42:17.257Z,99205.41
2023-03-15T00:45:20.788Z,99191.78
2023-03-15T00:48:22.664Z,99202.75
2023-03-15T00:51:25.277Z,99195.84
2023-03-15T00:54:27.568Z,99197.28
2023-03-15T00:57:30.266Z,99194.63
2023-03-15T01:00:32.093Z,99196.31
2023-03-15T01:03:36.736Z,99189.53
2023-03-15T01:06:41.018Z,99194.47
2023-03-15T01:09:48.494Z,99191.56
2023-03-15T01:12:50.622Z,99190.56
2023-03-15T01:15:52.496Z,99179.84
2023-03-15T01:18:55.069Z,99184.88
2023-03-15T01:21:56.960Z,99177.19
2023-03-15T01:25:01.972Z,99170.78
2023-03-15T01:28:07.649Z,99175.00
2023-03-15T01:31:20.098Z,99175.72
2023-03-15T01:34:22.100Z,99180.31
2023-03-15T01:37:24.845Z,99174.59
2023-03-15T01:40:31.570Z,99172.22
2023-03-15T01:43:34.682Z,99170.91
2023-03-15T01:46:37.019Z,99173.00
2023-03-15T01:49:55.758Z,99170.91
2023-03-15T01:52:57.714Z,99173.97
2023-03-15T01:56:01.313Z,99174.28
2023-03-15T01:59:18.982Z,99178.16
2023-03-15T02:02:24.559Z,99167.31
2023-03-15T02:05:38.233Z,99170.53
2023-03-15T02:08:46.824Z,99177.25
2023-03-15T02:11:48.974Z,99169.56
2023-03-15T02:14:54.238Z,99179.78
2023-03-15T02:17:59.095Z,99176.16
2023-03-15T02:21:07.378Z,99174.22
2023-03-15T02:24:14.900Z,99174.34
2023-03-15T02:27:27.200Z,99180.50
2023-03-15T02:30:29.205Z,99175.91
2023-03-15T02:33:37.203Z,99180.25
2023-03-15T02:36:39.039Z,99187.59
2023-03-15T02:39:40.914Z,99177.13
2023-03-15T02:42:42.845Z,99193.03
2023-03-15T02:45:47.392Z,99183.16
2023-03-15T02:48:51.710Z,99187.34
2023-03-15T02:51:53.923Z,99193.03
2023-03-15T02:54:55.758Z,99186.63
2023-03-15T02:57:57.655Z,99179.53
2023-03-15T03:01:02.037Z,99184.69
2023-03-15T03:04:05.388Z,99186.78
2023-03-15T03:07:10.617Z,99187.47
2023-03-15T03:10:24.837Z,99194.72
2023-03-15T03:13:34.059Z,99182.44
2023-03-15T03:16:38.422Z,99183.16
2023-03-15T03:19:40.359Z,99182.31
2023-03-15T03:22:45.051Z,99181.47
2023-03-15T03:25:46.968Z,99184.63
2023-03-15T03:28:49.737Z,99185.22
2023-03-15T03:31:55.051Z,99191.22
2023-03-15T03:34:57.451Z,99190.38
2023-03-15T03:37:59.849Z,99204.50
2023-03-15T03:41:10.085Z,99197.06
2023-03-15T03:44:13.141Z,99201.50
2023-03-15T03:47:16.684Z,99190.19
2023-03-15T03:50:18.879Z,99203.56
2023-03-15T03:53:20.847Z,99196.47
2023-03-15T03:56:23.045Z,99199.38
2023-03-15T03:59:25.181Z,99200.72
2023-03-15T04:02:34.702Z,99201.09
2023-03-15T04:05:42.062Z,99199.56
2023-03-15T04:08:45.126Z,99189.47
2023-03-15T04:11:51.521Z,99186.22
2023-03-15T04:14:54.380Z,99183.94
2023-03-15T04:17:58.849Z,99190.59
2023-03-15T04:21:11.158Z,99188.78
2023-03-15T04:24:17.045Z,99193.75
2023-03-15T04:27:36.597Z,99194.22
2023-03-15T04:31:07.199Z,99188.78
2023-03-15T04:34:38.939Z,99191.19
2023-03-15T04:37:53.071Z,99191.91
2023-03-15T04:41:17.472Z,99186.34
2023-03-15T04:44:44.648Z,99190.94
2023-03-15T04:48:05.054Z,99182.84
2023-03-15T04:51:06.865Z,99177.56
2023-03-15T04:54:25.256Z,99176.84
2023-03-15T04:57:51.104Z,99183.09
2023-03-15T05:01:12.713Z,99181.94
2023-03-15T05:04:31.436Z,99184.31
2023-03-15T05:07:55.673Z,99182.53
2023-03-15T05:11:23.990Z,99165.53
2023-03-15T05:14:46.732Z,99168.44
2023-03-15T05:18:09.640Z,99168.19
2023-03-15T05:21:44.853Z,99161.97
2023-03-15T05:24:55.719Z,99160.88
2023-03-15T05:28:27.312Z,99148.09
2023-03-15T05:31:58.936Z,99151.66
2023-03-15T05:35:13.560Z,99153.13
2023-03-15T05:38:26.683Z,99150.66
2023-03-15T05:41:28.711Z,99140.47
2023-03-15T05:44:44.119Z,99130.25
2023-03-15T05:47:55.063Z,99123.75
2023-03-15T05:51:16.052Z,99115.53
2023-03-15T05:54:38.406Z,99116.94
2023-03-15T05:57:55.287Z,99122.44
2023-03-15T06:01:16.346Z,99129.81
2023-03-15T06:04:38.750Z,99137.25
2023-03-15T06:07:42.385Z,99142.41
2023-03-15T06:10:44.635Z,99138.75
2023-03-15T06:13:47.628Z,99126.72
2023-03-15T06:17:04.872Z,99122.09
2023-03-15T06:20:07.365Z,99126.25
2023-03-15T06:23:12.000Z,99127.34
2023-03-15T06:26:20.995Z,99128.38
2023-03-15T06:29:25.534Z,99122.31
2023-03-15T06:32:31.982Z,99111.06
2023-03-15T06:35:34.411Z,99109.34
2023-03-15T06:38:36.615Z,99104.09
2023-03-15T06:41:39.804Z,99095.28
2023-03-15T06:44:46.603Z,99094.41
2023-03-15T06:47:49.402Z,99090.69
2023-03-15T06:50:58.573Z,99087.19
2023-03-15T06:54:00.726Z,99083.31
2023-03-15T06:57:04.188Z,99083.31
2023-03-15T07:00:11.383Z,99076.50
2023-03-15T07:03:14.501Z,99084.56
2023-03-15T07:06:16.491Z,99089.00
2023-03-15T07:09:19.747Z,99085.03
2023-03-15T07:12:22.759Z,99086.66
2023-03-15T07:15:24.467Z,99083.91
2023-03-15T07:18:26.598Z,99070.13
2023-03-15T07:21:32.546Z,99064.91
2023-03-15T07:24:34.398Z,99058.59
2023-03-15T07:27:38.655Z,99067.38
2023-03-15T07:30:40.513Z,99056.31
2023-03-15T07:33:42.461Z,99062.78
2023-03-15T07:36:44.339Z,99053.28
2023-03-15T07:39:46.730Z,99042.47
2023-03-15T07:42:48.546Z,99044.16
2023-03-15T07:45:52.833Z,99034.47
2023-03-15T07:48:54.792Z,99050.13
2023-03-15T07:51:56.630Z,99054.09
2023-03-15T07:54:59.134Z,99042.75
2023-03-15T07:58:03.998Z,99048.03
2023-03-15T08:01:05.902Z,99047.09
2023-03-15T08:04:08.032Z,99034.22
2023-03-15T08:07:10.017Z,99035.41
2023-03-15T08:10:12.416Z,99036.81
2023-03-15T08:13:14.957Z,99039.75
2023-03-15T08:16:16.958Z,99033.81
2023-03-15T08:19:18.981Z,99040.59
2023-03-15T08:22:20.779Z,99038.63
2023-03-15T08:25:24.275Z,99042.22
2023-03-15T08:28:26.081Z,99027.94
2023-03-15T08:31:28.064Z,99030.50
2023-03-15T08:34:30.017Z,99027.50
2023-03-15T08:37:31.865Z,99019.88
2023-03-15T08:40:33.761Z,99014.44
2023-03-15T08:43:35.637Z,99013.66
2023-03-15T08:46:37.533Z,98996.81
2023-03-15T08:49:39.446Z,99003.47
2023-03-15T08:52:41.888Z,99011.97
2023-03-15T08:55:44.265Z,98998.66
2023-03-15T08:58:46.313Z,98994.47
2023-03-15T09:01:48.267Z,98989.06
2023-03-15T09:04:51.409Z,98984.22
2023-03-15T09:07:55.337Z,98981.91
2023-03-15T09:10:58.068Z,98994.19
2023-03-15T09:13:59.913Z,98991.56
2023-03-15T09:17:01.776Z,98989.97
2023-03-15T09:20:08.087Z,98979.78
2023-03-15T09:23:12.877Z,98978.34
2023-03-15T09:26:14.706Z,98971.13
2023-03-15T09:29:16.604Z,98976.41
2023-03-15T09:32:18.465Z,98976.06
2023-03-15T09:35:24.488Z,98966.63
2023-03-15T09:38:26.916Z,98966.44
2023-03-15T09:41:34.656Z,98969.41
2023-03-15T09:44:54.385Z,98953.41
2023-03-15T09:48:05.647Z,98952.94
2023-03-15T09:51:14.909Z,98946.59
2023-03-15T09:54:29.354Z,98941.78
2023-03-15T09:57:39.506Z,98948.53
2023-03-15T10:00:48.773Z,98937.66
2023-03-15T10:03:52.628Z,98936.72
2023-03-15T10:06:57.518Z,98930.00
2023-03-15T10:09:59.453Z,98925.09
2023-03-15T10:13:33.759Z,98921.88
2023-03-15T10:16:43.083Z,98919.31
2023-03-15T10:19:56.641Z,98908.97
2023-03-15T10:23:03.455Z,98907.69
2023-03-15T10:26:10.536Z,98905.47
2023-03-15T10:29:20.189Z,98903.38
2023-03-15T10:32:38.940Z,98911.19
2023-03-15T10:35:47.062Z,98903.28
2023-03-15T10:38:50.610Z,98900.06
2023-03-15T10:41:52.782Z,98877.78
2023-03-15T10:44:54.687Z,98880.59
2023-03-15T10:48:00.644Z,98879.00
2023-03-15T10:51:26.224Z,98875.34
2023-03-15T10:54:28.451Z,98869.28
2023-03-15T10:57:39.358Z,98878.50
2023-03-15T11:00:49.671Z,98859.22
2023-03-15T11:04:01.622Z,98857.09
2023-03-15T11:07:04.184Z,98856.72
2023-03-15T11:10:07.238Z,98854.28
2023-03-15T11:13:20.711Z,98849.41
2023-03-15T11:16:22.703Z,98851.09
2023-03-15T11:19:31.885Z,98842.38
2023-03-15T11:22:34.895Z,98837.13
2023-03-15T11:25:39.337Z,98833.03
2023-03-15T11:28:47.831Z,98832.66
2023-03-15T11:31:51.462Z,98837.31
2023-03-15T11:35:12.883Z,98838.59
2023-03-15T11:38:30.324Z,98834.88
2023-03-15T11:41:50.099Z,98826.94
2023-03-15T11:44:57.385Z,98830.59
2023-03-15T11:48:11.594Z,98818.56
2023-03-15T11:51:14.280Z,98802.94
2023-03-15T11:54:18.616Z,98813.31
2023-03-15T11:57:29.569Z,98810.38
2023-03-15T12:00:32.110Z,98817.81
2023-03-15T12:03:41.075Z,98806.84
2023-03-15T12:06:42.966Z,98808.59
2023-03-15T12:09:52.432Z,98802.25
2023-03-15T12:12:59.426Z,98815.75
2023-03-15T12:16:01.353Z,98815.13
2023-03-15T12:19:11.067Z,98807.94
2023-03-15T12:22:17.387Z,98822.41
2023-03-15T12:25:54.359Z,98825.72
2023-03-15T12:28:59.131Z,98834.44
2023-03-15T12:32:03.762Z,98833.88
2023-03-15T12:35:16.654Z,98838.81
2023-03-15T12:38:21.630Z,98840.22
2023-03-15T12:41:35.752Z,98840.78
2023-03-15T12:44:49.084Z,98846.22
2023-03-15T12:47:59.943Z,98829.72
2023-03-15T12:51:04.334Z,98831.81
2023-03-15T12:54:11.403Z,98822.97
2023-03-15T12:57:29.940Z,98818.25
2023-03-15T13:00:34.658Z,98809.66
2023-03-15T13:03:36.799Z,98810.44
2023-03-15T13:06:45.826Z,98809.53
2023-03-15T13:10:12.615Z,98825.56
2023-03-15T13:13:42.125Z,98812.94
2023-03-15T13:17:08.895Z,98810.38
2023-03-15T13:20:32.177Z,98802.06
2023-03-15T13:23:35.173Z,98810.00
2023-03-15T13:26:45.710Z,98795.84
2023-03-15T13:29:47.576Z,98797.88
2023-03-15T13:32:49.454Z,98795.56
2023-03-15T13:35:58.695Z,98792.25
2023-03-15T13:39:00.658Z,98786.63
2023-03-15T13:42:05.778Z,98794.66
2023-03-15T13:45:16.237Z,98777.47
2023-03-15T13:48:20.860Z,98775.59
2023-03-15T13:51:27.447Z,98784.50
2023-03-15T13:54:34.304Z,98777.28
2023-03-15T13:57:36.982Z,98770.88
2023-03-15T14:00:41.246Z,98776.25
2023-03-15T14:03:49.159Z,98772.91
2023-03-15T14:06:51.740Z,98769.66
2023-03-15T14:10:27.334Z,98766.84
2023-03-15T14:13:47.357Z,98769.66
2023-03-15T14:17:03.712Z,98777.09
2023-03-15T14:20:15.310Z,98774.19
2023-03-15T14:23:21.766Z,98768.97
2023-03-15T14:26:28.103Z,98764.81
2023-03-15T14:29:34.238Z,98763.97
2023-03-15T14:32:42.017Z,98756.09
2023-03-15T14:35:44.548Z,98759.44
2023-03-15T14:38:52.983Z,98766.41
2023-03-15T14:41:55.297Z,98763.84
2023-03-15T14:44:57.169Z,98757.00
2023-03-15T14:48:05.645Z,98758.22
2023-03-15T14:51:13.791Z,98767.84
2023-03-15T14:54:16.081Z,98763.25
2023-03-15T14:57:20.443Z,98761.00
2023-03-15T15:00:22.630Z,98760.56
2023-03-15T15:03:45.708Z,98770.00
2023-03-15T15:06:52.316Z,98770.31
2023-03-15T15:09:54.209Z,98766.06
2023-03-15T15:13:05.492Z,98768.00
2023-03-15T15:16:08.713Z,98777.34
2023-03-15T15:19:11.154Z,98778.94
2023-03-15T15:22:13.047Z,98785.28
2023-03-15T15:25:19.830Z,98786.88
2023-03-15T15:28:33.859Z,98785.75
2023-03-15T15:31:37.608Z,98788.50
2023-03-15T15:34:43.673Z,98794.06
2023-03-15T15:37:48.141Z,98809.56
2023-03-15T15:40:50.114Z,98805.75
2023-03-15T15:43:52.405Z,98806.47
2023-03-15T15:46:54.322Z,98801.47
2023-03-15T15:49:56.142Z,98801.25
2023-03-15T15:52:59.325Z,98803.84
2023-03-15T15:56:02.000Z,98800.09
2023-03-15T15:59:09.913Z,98801.13
2023-03-15T16:02:15.478Z,98794.16
2023-03-15T16:05:17.346Z,98793.38
2023-03-15T16:08:23.719Z,98803.97
2023-03-15T16:11:25.646Z,98810.38
2023-03-15T16:14:29.642Z,98798.34
2023-03-15T16:17:31.642Z,98805.41
2023-03-15T16:20:33.572Z,98801.44
2023-03-15T16:23:35.487Z,98794.78
2023-03-15T16:26:39.283Z,98798.50
2023-03-15T16:29:49.957Z,98801.34
2023-03-15T16:32:55.783Z,98795.66
2023-03-15T16:36:01.361Z,98793.34
2023-03-15T16:39:03.882Z,98784.50
2023-03-15T16:42:07.737Z,98786.88
2023-03-15T16:45:13.454Z,98782.22
2023-03-15T16:48:15.358Z,98780.06
2023-03-15T16:51:17.490Z,98780.91
2023-03-15T16:54:38.320Z,98771.72
2023-03-15T16:57:45.040Z,98774.44
2023-03-15T17:00:48.485Z,98777.09
2023-03-15T17:03:50.938Z,98778.13
2023-03-15T17:06:52.922Z,98784.81
2023-03-15T17:09:55.164Z,98788.97
2023-03-15T17:13:02.826Z,98793.66
2023-03-15T17:16:06.190Z,98793.16
2023-03-15T17:19:15.442Z,98794.31
2023-03-15T17:22:19.371Z,98789.81
2023-03-15T17:25:21.370Z,98785.81
2023-03-15T17:28:25.234Z,98782.47
2023-03-15T17:31:34.411Z,98785.31
2023-03-15T17:34:36.398Z,98790.00
2023-03-15T17:37:38.707Z,98793.66
2023-03-15T17:40:43.403Z,98786.84
2023-03-15T17:43:45.958Z,98786.00
2023-03-15T17:46:49.093Z,98778.16
2023-03-15T17:49:51.425Z,98769.31
2023-03-15T17:53:03.014Z,98774.97
2023-03-15T17:56:05.099Z,98773.47
2023-03-15T17:59:13.369Z,98768.31
2023-03-15T18:02:16.254Z,98771.97
2023-03-15T18:05:20.781Z,98774.97
2023-03-15T18:08:24.839Z,98765.28
2023-03-15T18:11:32.210Z,98763.63
2023-03-15T18:14:37.292Z,98767.59
2023-03-15T18:17:39.346Z,98762.44
2023-03-15T18:20:45.300Z,98767.78
2023-03-15T18:23:49.653Z,98764.44
2023-03-15T18:26:52.901Z,98758.75
2023-03-15T18:29:55.043Z,98760.75
2023-03-15T18:32:57.688Z,98762.75
2023-03-15T18:36:01.892Z,98754.91
2023-03-15T18:39:06.507Z,98761.41
2023-03-15T18:42:10.609Z,98763.59
2023-03-15T18:45:21.583Z,98765.25
2023-03-15T18:48:39.635Z,98764.91
2023-03-15T18:51:42.547Z,98769.91
2023-03-15T18:54:44.302Z,98761.56
2023-03-15T18:57:46.514Z,98757.88
2023-03-15T19:00:49.320Z,98759.72
2023-03-15T19:03:52.733Z,98755.84
2023-03-15T19:06:54.610Z,98751.84
2023-03-15T19:09:56.486Z,98749.50
2023-03-15T19:12:58.352Z,98752.34
2023-03-15T19:16:00.367Z,98749.66
2023-03-15T19:19:04.381Z,98757.16
2023-03-15T19:22:06.234Z,98760.84
2023-03-15T19:25:11.584Z,98757.81
2023-03-15T19:28:14.146Z,98760.47
2023-03-15T19:31:16.114Z,98757.81
2023-03-15T19:34:18.092Z,98757.81
2023-03-15T19:37:19.941Z,98753.31
2023-03-15T19:40:22.172Z,98759.31
2023-03-15T19:43:24.538Z,98752.66
2023-03-15T19:46:28.658Z,98759.81
2023-03-15T19:49:33.350Z,98756.31
2023-03-15T19:52:35.281Z,98754.97
2023-03-15T19:55:37.152Z,98751.47
2023-03-15T19:58:39.058Z,98744.78
2023-03-15T20:01:42.377Z,98750.94
2023-03-15T20:04:44.386Z,98750.28
2023-03-15T20:07:47.378Z,98749.59
2023-03-15T20:10:58.442Z,98754.25
2023-03-15T20:14:00.364Z,98753.25
2023-03-15T20:17:02.501Z,98747.25
2023-03-15T20:20:11.381Z,98747.94
2023-03-15T20:23:13.298Z,98748.09
2023-03-15T20:26:20.228Z,98753.44
2023-03-15T20:29:22.600Z,98747.09
2023-03-15T20:32:24.476Z,98744.59
2023-03-15T20:35:26.455Z,98744.59
2023-03-15T20:38:32.364Z,98735.75
2023-03-15T20:41:34.434Z,98740.25
2023-03-15T20:44:36.307Z,98746.41
2023-03-15T20:47:38.383Z,98744.75
2023-03-15T20:50:40.291Z,98732.25
2023-03-15T20:53:42.304Z,98735.75
2023-03-15T20:56:44.203Z,98730.75
2023-03-15T20:59:46.750Z,98728.25
2023-03-15T21:02:48.816Z,98725.06
2023-03-15T21:05:50.765Z,98728.06
2023-03-15T21:08:55.137Z,98724.41
2023-03-15T21:11:57.174Z,98711.38
2023-03-15T21:14:59.074Z,98716.38
2023-03-15T21:18:01.045Z,98716.53
2023-03-15T21:21:07.871Z,98720.50
2023-03-15T21:24:10.893Z,98717.34
2023-03-15T21:27:12.829Z,98721.81
2023-03-15T21:30:15.044Z,98712.16
2023-03-15T21:33:16.896Z,98714.81
2023-03-15T21:36:18.930Z,98716.81
2023-03-15T21:39:20.821Z,98716.31
2023-03-15T21:42:24.951Z,98712.28
2023-03-15T21:45:26.844Z,98703.47
2023-03-15T21:48:29.570Z,98701.09
2023-03-15T21:51:34.152Z,98708.28
2023-03-15T21:54:36.040Z,98701.94
2023-03-15T21:57:37.866Z,98701.28
2023-03-15T22:00:39.828Z,98687.94
2023-03-15T22:03:42.689Z,98694.28
2023-03-15T22:06:44.604Z,98701.59
2023-03-15T22:09:46.511Z,98706.25
2023-03-15T22:12:48.386Z,98712.25
2023-03-15T22:15:52.334Z,98706.91
2023-03-15T22:18:54.217Z,98713.09
2023-03-15T22:21:58.438Z,98713.75
2023-03-15T22:25:00.266Z,98719.09
2023-03-15T22:28:02.136Z,98706.59
2023-03-15T22:31:06.290Z,98696.78
2023-03-15T22:34:11.206Z,98699.44
2023-03-15T22:37:13.397Z,98696.78
2023-03-15T22:40:15.667Z,98695.94
2023-03-15T22:43:17.942Z,98700.94
2023-03-15T22:46:19.973Z,98703.28
2023-03-15T22:49:21.872Z,98711.28
2023-03-15T22:52:23.792Z,98703.13
2023-03-15T22:55:25.943Z,98704.97
2023-03-15T22:58:27.806Z,98700.47
2023-03-15T23:01:29.634Z,98696.97
2023-03-15T23:04:32.066Z,98693.63
2023-03-15T23:07:33.955Z,98693.63
2023-03-15T23:10:36.109Z,98684.66
2023-03-15T23:13:37.988Z,98691.13
2023-03-15T23:16:39.886Z,98680.47
2023-03-15T23:19:41.807Z,98684.13
2023-03-15T23:22:44.997Z,98681.63
2023-03-15T23:25:47.049Z,98677.28
2023-03-15T23:28:48.899Z,98666.78
2023-03-15T23:31:50.804Z,98663.28
2023-03-15T23:34:53.699Z,98647.47
2023-03-15T23:37:56.557Z,98637.47
2023-03-15T23:41:01.757Z,98645.28
2023-03-15T23:44:03.713Z,98635.31
2023-03-15T23:47:06.615Z,98621.81
2023-03-15T23:50:09.786Z,98631.97
2023-03-15T23:53:12.661Z,98636.47
2023-03-15T23:56:14.619Z,98640.13
2023-03-15T23:59:17.274Z,98634.94
